Alvin, Wisconsin
Current Conditions -  °F | °C
As of 4:15 PM on Tuesday 25 Nov 2014 (Local Time) from KEGV Reporting Station
Clear Clear  
Wind Chill: 15°   Ceiling: Unl
Heat Index: 15°   Visibility: 10mi
Dew Point:   Wind: 3mph
Humidity: 74%   Direction: 260°W
Pressure: 29.96"   Gusts: NA
Location:  45.9186°N, 88.7601°W
Report Text: KEGV 252215Z AUTO 26003KT 10SM CLR M09/M13 A2996 RMK AO2 T10941133
Loading
Personal Weather Stations






























Interactive Weather Map New forecast layout! Learn more

10-Day Weather Forecast

Advertisements
Track Severe Weather on mobile